sensor_id;sensor_type;location;lat;lon;timestamp;temperature;humidity
37158;DHT22;23050;51.776;22.638;2023-06-22T00:01:18;21.00;99.90
37158;DHT22;23050;51.776;22.638;2023-06-22T00:03:43;21.00;99.90
37158;DHT22;23050;51.776;22.638;2023-06-22T00:06:09;21.00;99.90
37158;DHT22;23050;51.776;22.638;2023-06-22T00:08:34;20.90;99.90
37158;DHT22;23050;51.776;22.638;2023-06-22T00:11:00;20.90;99.90
37158;DHT22;23050;51.776;22.638;2023-06-22T00:13:25;20.90;99.90
37158;DHT22;23050;51.776;22.638;2023-06-22T00:15:51;20.90;99.90
37158;DHT22;23050;51.776;22.638;2023-06-22T00:18:16;20.80;99.90
37158;DHT22;23050;51.776;22.638;2023-06-22T00:20:42;20.80;99.90
37158;DHT22;23050;51.776;22.638;2023-06-22T00:23:07;20.80;99.90
37158;DHT22;23050;51.776;22.638;2023-06-22T00:25:36;20.70;99.90
37158;DHT22;23050;51.776;22.638;2023-06-22T00:28:02;20.70;99.90
37158;DHT22;23050;51.776;22.638;2023-06-22T00:30:29;20.70;99.90
37158;DHT22;23050;51.776;22.638;2023-06-22T00:32:55;20.70;99.90
37158;DHT22;23050;51.776;22.638;2023-06-22T00:35:21;20.70;99.90
37158;DHT22;23050;51.776;22.638;2023-06-22T00:37:46;20.70;99.90
37158;DHT22;23050;51.776;22.638;2023-06-22T00:40:12;20.70;99.90
37158;DHT22;23050;51.776;22.638;2023-06-22T00:42:38;20.70;99.90
37158;DHT22;23050;51.776;22.638;2023-06-22T00:45:05;20.60;99.90
37158;DHT22;23050;51.776;22.638;2023-06-22T00:47:30;20.60;99.90
37158;DHT22;23050;51.776;22.638;2023-06-22T00:49:56;20.60;99.90
37158;DHT22;23050;51.776;22.638;2023-06-22T00:52:22;20.60;99.90
37158;DHT22;23050;51.776;22.638;2023-06-22T00:54:52;20.60;99.90
37158;DHT22;23050;51.776;22.638;2023-06-22T00:57:18;20.60;99.90
37158;DHT22;23050;51.776;22.638;2023-06-22T00:59:45;20.60;99.90
37158;DHT22;23050;51.776;22.638;2023-06-22T01:02:10;20.50;99.90
37158;DHT22;23050;51.776;22.638;2023-06-22T01:04:38;20.50;99.90
37158;DHT22;23050;51.776;22.638;2023-06-22T01:12:32;20.50;99.90
37158;DHT22;23050;51.776;22.638;2023-06-22T01:15:10;20.50;99.90
37158;DHT22;23050;51.776;22.638;2023-06-22T01:17:37;20.50;99.90
37158;DHT22;23050;51.776;22.638;2023-06-22T01:20:05;20.50;99.90
37158;DHT22;23050;51.776;22.638;2023-06-22T01:22:33;20.50;99.90
37158;DHT22;23050;51.776;22.638;2023-06-22T01:25:20;20.50;99.90
37158;DHT22;23050;51.776;22.638;2023-06-22T01:30:15;20.50;99.90
37158;DHT22;23050;51.776;22.638;2023-06-22T01:32:41;20.50;99.90
37158;DHT22;23050;51.776;22.638;2023-06-22T01:35:07;20.50;99.90
37158;DHT22;23050;51.776;22.638;2023-06-22T01:37:34;20.50;99.90
37158;DHT22;23050;51.776;22.638;2023-06-22T01:40:01;20.50;99.90
37158;DHT22;23050;51.776;22.638;2023-06-22T01:42:26;20.50;99.90
37158;DHT22;23050;51.776;22.638;2023-06-22T01:44:52;20.50;99.90
37158;DHT22;23050;51.776;22.638;2023-06-22T01:47:18;20.50;99.90
37158;DHT22;23050;51.776;22.638;2023-06-22T01:49:45;20.50;99.90
37158;DHT22;23050;51.776;22.638;2023-06-22T01:52:11;20.50;99.90
37158;DHT22;23050;51.776;22.638;2023-06-22T01:54:37;20.40;99.90
37158;DHT22;23050;51.776;22.638;2023-06-22T01:57:03;20.40;99.90
37158;DHT22;23050;51.776;22.638;2023-06-22T01:59:29;20.40;99.90
37158;DHT22;23050;51.776;22.638;2023-06-22T02:01:59;20.40;99.90
37158;DHT22;23050;51.776;22.638;2023-06-22T02:04:27;20.40;99.90
37158;DHT22;23050;51.776;22.638;2023-06-22T02:06:55;20.40;99.90
37158;DHT22;23050;51.776;22.638;2023-06-22T02:09:21;20.40;99.90
37158;DHT22;23050;51.776;22.638;2023-06-22T02:11:48;20.40;99.90
37158;DHT22;23050;51.776;22.638;2023-06-22T02:14:17;20.40;99.90
37158;DHT22;23050;51.776;22.638;2023-06-22T02:16:43;20.40;99.90
37158;DHT22;23050;51.776;22.638;2023-06-22T02:19:08;20.30;99.90
37158;DHT22;23050;51.776;22.638;2023-06-22T02:21:34;20.30;99.90
37158;DHT22;23050;51.776;22.638;2023-06-22T02:23:59;20.30;99.90
37158;DHT22;23050;51.776;22.638;2023-06-22T02:26:25;20.20;99.90
37158;DHT22;23050;51.776;22.638;2023-06-22T02:28:51;20.20;99.90
37158;DHT22;23050;51.776;22.638;2023-06-22T02:31:17;20.20;99.90
37158;DHT22;23050;51.776;22.638;2023-06-22T02:33:42;20.20;99.90
37158;DHT22;23050;51.776;22.638;2023-06-22T02:36:09;20.10;99.90
37158;DHT22;23050;51.776;22.638;2023-06-22T02:38:35;20.10;99.90
37158;DHT22;23050;51.776;22.638;2023-06-22T02:41:01;20.10;99.90
37158;DHT22;23050;51.776;22.638;2023-06-22T02:43:27;20.10;99.90
37158;DHT22;23050;51.776;22.638;2023-06-22T02:45:53;20.10;99.90
37158;DHT22;23050;51.776;22.638;2023-06-22T02:48:18;20.10;99.90
37158;DHT22;23050;51.776;22.638;2023-06-22T02:50:44;20.10;99.90
37158;DHT22;23050;51.776;22.638;2023-06-22T02:53:09;20.10;99.90
37158;DHT22;23050;51.776;22.638;2023-06-22T02:55:35;20.00;99.90
37158;DHT22;23050;51.776;22.638;2023-06-22T02:58:00;20.10;99.90
37158;DHT22;23050;51.776;22.638;2023-06-22T03:00:29;20.10;99.90
37158;DHT22;23050;51.776;22.638;2023-06-22T03:02:56;20.00;99.90
37158;DHT22;23050;51.776;22.638;2023-06-22T03:05:22;20.00;99.90
37158;DHT22;23050;51.776;22.638;2023-06-22T03:07:48;20.00;99.90
37158;DHT22;23050;51.776;22.638;2023-06-22T03:10:14;20.00;99.90
37158;DHT22;23050;51.776;22.638;2023-06-22T03:12:40;20.10;99.90
37158;DHT22;23050;51.776;22.638;2023-06-22T03:15:06;20.10;99.90
37158;DHT22;23050;51.776;22.638;2023-06-22T03:17:33;20.00;99.90
37158;DHT22;23050;51.776;22.638;2023-06-22T03:19:58;20.00;99.90
37158;DHT22;23050;51.776;22.638;2023-06-22T03:22:24;20.00;99.90
37158;DHT22;23050;51.776;22.638;2023-06-22T03:24:49;19.90;99.90
37158;DHT22;23050;51.776;22.638;2023-06-22T03:27:15;19.90;99.90
37158;DHT22;23050;51.776;22.638;2023-06-22T03:29:40;19.90;99.90
37158;DHT22;23050;51.776;22.638;2023-06-22T03:32:06;19.90;99.90
37158;DHT22;23050;51.776;22.638;2023-06-22T03:34:32;19.90;99.90
37158;DHT22;23050;51.776;22.638;2023-06-22T03:36:59;20.00;99.90
37158;DHT22;23050;51.776;22.638;2023-06-22T03:39:25;20.00;99.90
37158;DHT22;23050;51.776;22.638;2023-06-22T03:41:50;20.10;99.90
37158;DHT22;23050;51.776;22.638;2023-06-22T03:44:16;20.10;99.90
37158;DHT22;23050;51.776;22.638;2023-06-22T03:46:41;20.20;99.90
37158;DHT22;23050;51.776;22.638;2023-06-22T03:49:06;20.20;99.90
37158;DHT22;23050;51.776;22.638;2023-06-22T03:51:32;20.20;99.90
37158;DHT22;23050;51.776;22.638;2023-06-22T03:53:58;20.20;99.90
37158;DHT22;23050;51.776;22.638;2023-06-22T03:56:23;20.30;99.90
37158;DHT22;23050;51.776;22.638;2023-06-22T03:58:48;20.30;99.90
37158;DHT22;23050;51.776;22.638;2023-06-22T04:01:14;20.40;99.90
37158;DHT22;23050;51.776;22.638;2023-06-22T04:03:42;20.40;99.90
37158;DHT22;23050;51.776;22.638;2023-06-22T04:06:08;20.50;99.90
37158;DHT22;23050;51.776;22.638;2023-06-22T04:08:33;20.60;99.90
37158;DHT22;23050;51.776;22.638;2023-06-22T04:10:59;20.70;99.90
37158;DHT22;23050;51.776;22.638;2023-06-22T04:13:24;20.70;99.90
37158;DHT22;23050;51.776;22.638;2023-06-22T04:15:49;20.90;99.90
37158;DHT22;23050;51.776;22.638;2023-06-22T04:18:15;21.10;99.90
37158;DHT22;23050;51.776;22.638;2023-06-22T04:20:40;21.10;99.90
37158;DHT22;23050;51.776;22.638;2023-06-22T04:23:06;21.10;99.90
37158;DHT22;23050;51.776;22.638;2023-06-22T04:25:31;21.00;99.90
37158;DHT22;23050;51.776;22.638;2023-06-22T04:27:57;21.00;99.90
37158;DHT22;23050;51.776;22.638;2023-06-22T04:30:22;21.10;99.90
37158;DHT22;23050;51.776;22.638;2023-06-22T04:32:48;21.00;99.90
37158;DHT22;23050;51.776;22.638;2023-06-22T04:35:21;21.10;99.90
37158;DHT22;23050;51.776;22.638;2023-06-22T04:37:47;21.10;99.90
37158;DHT22;23050;51.776;22.638;2023-06-22T04:40:14;21.20;99.90
37158;DHT22;23050;51.776;22.638;2023-06-22T04:42:40;21.20;99.90
37158;DHT22;23050;51.776;22.638;2023-06-22T04:45:09;21.20;99.90
37158;DHT22;23050;51.776;22.638;2023-06-22T04:47:35;21.30;99.90
37158;DHT22;23050;51.776;22.638;2023-06-22T04:50:04;21.30;99.90
37158;DHT22;23050;51.776;22.638;2023-06-22T04:52:33;21.40;99.90
37158;DHT22;23050;51.776;22.638;2023-06-22T04:54:58;21.40;99.90
37158;DHT22;23050;51.776;22.638;2023-06-22T04:57:25;21.50;99.90
37158;DHT22;23050;51.776;22.638;2023-06-22T04:59:57;21.50;99.90
37158;DHT22;23050;51.776;22.638;2023-06-22T05:02:23;21.60;99.90
37158;DHT22;23050;51.776;22.638;2023-06-22T05:04:57;21.70;99.90
37158;DHT22;23050;51.776;22.638;2023-06-22T05:07:22;21.80;99.90
37158;DHT22;23050;51.776;22.638;2023-06-22T05:09:50;21.90;99.90
37158;DHT22;23050;51.776;22.638;2023-06-22T05:12:16;21.90;99.90
37158;DHT22;23050;51.776;22.638;2023-06-22T05:14:41;22.10;99.90
37158;DHT22;23050;51.776;22.638;2023-06-22T05:17:07;22.10;99.90
37158;DHT22;23050;51.776;22.638;2023-06-22T05:19:38;22.10;99.90
37158;DHT22;23050;51.776;22.638;2023-06-22T05:22:04;22.10;99.90
37158;DHT22;23050;51.776;22.638;2023-06-22T05:24:29;22.20;99.90
37158;DHT22;23050;51.776;22.638;2023-06-22T05:26:55;22.20;99.90
37158;DHT22;23050;51.776;22.638;2023-06-22T05:29:20;22.30;99.90
37158;DHT22;23050;51.776;22.638;2023-06-22T05:31:48;22.50;99.90
37158;DHT22;23050;51.776;22.638;2023-06-22T05:34:14;22.50;99.90
37158;DHT22;23050;51.776;22.638;2023-06-22T05:36:40;22.80;99.90
37158;DHT22;23050;51.776;22.638;2023-06-22T05:39:12;23.20;99.90
37158;DHT22;23050;51.776;22.638;2023-06-22T05:41:40;23.60;99.90
37158;DHT22;23050;51.776;22.638;2023-06-22T05:44:06;24.20;99.90
37158;DHT22;23050;51.776;22.638;2023-06-22T05:46:31;25.20;99.90
37158;DHT22;23050;51.776;22.638;2023-06-22T05:48:57;26.60;99.90
37158;DHT22;23050;51.776;22.638;2023-06-22T05:51:22;27.60;94.00
37158;DHT22;23050;51.776;22.638;2023-06-22T05:53:48;28.30;88.80
37158;DHT22;23050;51.776;22.638;2023-06-22T05:56:15;29.00;78.10
37158;DHT22;23050;51.776;22.638;2023-06-22T05:58:41;28.90;68.40
37158;DHT22;23050;51.776;22.638;2023-06-22T06:01:06;28.40;68.50
37158;DHT22;23050;51.776;22.638;2023-06-22T06:03:32;27.90;72.70
37158;DHT22;23050;51.776;22.638;2023-06-22T06:05:57;27.60;74.90
37158;DHT22;23050;51.776;22.638;2023-06-22T06:08:23;27.60;76.40
37158;DHT22;23050;51.776;22.638;2023-06-22T06:10:48;26.60;85.60
37158;DHT22;23050;51.776;22.638;2023-06-22T06:13:14;25.80;91.20
37158;DHT22;23050;51.776;22.638;2023-06-22T06:15:39;25.00;98.30
37158;DHT22;23050;51.776;22.638;2023-06-22T06:18:05;24.60;99.90
37158;DHT22;23050;51.776;22.638;2023-06-22T06:20:31;24.30;99.90
37158;DHT22;23050;51.776;22.638;2023-06-22T06:22:57;24.00;99.90
37158;DHT22;23050;51.776;22.638;2023-06-22T06:25:22;23.80;99.90
37158;DHT22;23050;51.776;22.638;2023-06-22T06:27:49;23.50;99.90
37158;DHT22;23050;51.776;22.638;2023-06-22T06:30:15;23.30;99.90
37158;DHT22;23050;51.776;22.638;2023-06-22T06:32:41;23.90;99.90
37158;DHT22;23050;51.776;22.638;2023-06-22T06:35:08;24.90;99.90
37158;DHT22;23050;51.776;22.638;2023-06-22T06:37:37;25.70;99.90
37158;DHT22;23050;51.776;22.638;2023-06-22T06:40:03;26.60;99.00
37158;DHT22;23050;51.776;22.638;2023-06-22T06:42:30;26.80;96.40
37158;DHT22;23050;51.776;22.638;2023-06-22T06:44:56;27.10;94.80
37158;DHT22;23050;51.776;22.638;2023-06-22T06:47:22;27.90;88.30
37158;DHT22;23050;51.776;22.638;2023-06-22T06:49:47;28.50;82.60
37158;DHT22;23050;51.776;22.638;2023-06-22T06:52:13;29.30;70.50
37158;DHT22;23050;51.776;22.638;2023-06-22T06:54:38;29.90;61.90
37158;DHT22;23050;51.776;22.638;2023-06-22T06:57:04;30.00;56.50
37158;DHT22;23050;51.776;22.638;2023-06-22T06:59:29;30.00;54.00
37158;DHT22;23050;51.776;22.638;2023-06-22T07:01:55;30.10;54.90
37158;DHT22;23050;51.776;22.638;2023-06-22T07:04:21;30.10;50.90
37158;DHT22;23050;51.776;22.638;2023-06-22T07:06:46;30.40;46.50
37158;DHT22;23050;51.776;22.638;2023-06-22T07:09:12;29.80;51.70
37158;DHT22;23050;51.776;22.638;2023-06-22T07:11:37;29.90;49.90
37158;DHT22;23050;51.776;22.638;2023-06-22T07:14:03;30.00;49.10
37158;DHT22;23050;51.776;22.638;2023-06-22T07:16:28;29.90;47.00
37158;DHT22;23050;51.776;22.638;2023-06-22T07:18:55;29.80;45.30
37158;DHT22;23050;51.776;22.638;2023-06-22T07:21:20;30.30;43.30
37158;DHT22;23050;51.776;22.638;2023-06-22T07:23:46;30.80;38.10
37158;DHT22;23050;51.776;22.638;2023-06-22T07:26:11;31.20;32.30
37158;DHT22;23050;51.776;22.638;2023-06-22T07:28:38;31.70;30.90
37158;DHT22;23050;51.776;22.638;2023-06-22T07:31:05;32.10;25.10
37158;DHT22;23050;51.776;22.638;2023-06-22T07:33:31;32.20;23.30
37158;DHT22;23050;51.776;22.638;2023-06-22T07:35:57;32.30;20.60
37158;DHT22;23050;51.776;22.638;2023-06-22T07:38:22;31.70;24.60
37158;DHT22;23050;51.776;22.638;2023-06-22T07:40:47;31.40;24.30
37158;DHT22;23050;51.776;22.638;2023-06-22T07:43:13;31.90;24.90
37158;DHT22;23050;51.776;22.638;2023-06-22T07:45:38;32.00;20.70
37158;DHT22;23050;51.776;22.638;2023-06-22T07:48:06;31.50;23.50
37158;DHT22;23050;51.776;22.638;2023-06-22T07:50:32;31.70;23.10
37158;DHT22;23050;51.776;22.638;2023-06-22T07:52:57;32.40;21.70
37158;DHT22;23050;51.776;22.638;2023-06-22T07:55:23;32.00;23.30
37158;DHT22;23050;51.776;22.638;2023-06-22T07:57:48;32.20;20.70
37158;DHT22;23050;51.776;22.638;2023-06-22T08:00:14;32.00;21.80
37158;DHT22;23050;51.776;22.638;2023-06-22T08:02:41;32.00;19.60
37158;DHT22;23050;51.776;22.638;2023-06-22T08:05:07;32.00;22.50
37158;DHT22;23050;51.776;22.638;2023-06-22T08:07:34;31.90;20.70
37158;DHT22;23050;51.776;22.638;2023-06-22T08:10:00;31.40;22.30
37158;DHT22;23050;51.776;22.638;2023-06-22T08:12:26;30.80;26.30
37158;DHT22;23050;51.776;22.638;2023-06-22T08:14:51;30.00;31.40
37158;DHT22;23050;51.776;22.638;2023-06-22T08:17:17;29.60;37.10
37158;DHT22;23050;51.776;22.638;2023-06-22T08:19:42;29.40;41.00
37158;DHT22;23050;51.776;22.638;2023-06-22T08:22:07;29.70;39.90
37158;DHT22;23050;51.776;22.638;2023-06-22T08:24:33;30.70;30.60
37158;DHT22;23050;51.776;22.638;2023-06-22T08:26:58;30.70;28.40
37158;DHT22;23050;51.776;22.638;2023-06-22T08:29:24;30.60;30.40
37158;DHT22;23050;51.776;22.638;2023-06-22T08:31:49;31.70;25.90
37158;DHT22;23050;51.776;22.638;2023-06-22T08:34:15;32.90;21.00
37158;DHT22;23050;51.776;22.638;2023-06-22T08:36:40;34.00;12.70
37158;DHT22;23050;51.776;22.638;2023-06-22T08:39:08;33.70;10.60
37158;DHT22;23050;51.776;22.638;2023-06-22T08:41:34;34.00;9.50
37158;DHT22;23050;51.776;22.638;2023-06-22T08:43:59;33.10;12.90
37158;DHT22;23050;51.776;22.638;2023-06-22T08:46:25;32.80;15.00
37158;DHT22;23050;51.776;22.638;2023-06-22T08:48:56;31.80;18.40
37158;DHT22;23050;51.776;22.638;2023-06-22T08:51:22;31.70;19.20
37158;DHT22;23050;51.776;22.638;2023-06-22T08:53:47;31.40;23.20
37158;DHT22;23050;51.776;22.638;2023-06-22T08:56:13;32.10;20.00
37158;DHT22;23050;51.776;22.638;2023-06-22T08:58:38;33.20;14.60
37158;DHT22;23050;51.776;22.638;2023-06-22T09:01:04;33.40;12.10
37158;DHT22;23050;51.776;22.638;2023-06-22T09:03:29;32.60;12.90
37158;DHT22;23050;51.776;22.638;2023-06-22T09:05:55;31.90;19.10
37158;DHT22;23050;51.776;22.638;2023-06-22T09:08:21;31.50;21.50
37158;DHT22;23050;51.776;22.638;2023-06-22T09:10:46;31.70;22.50
37158;DHT22;23050;51.776;22.638;2023-06-22T09:13:11;32.60;17.90
37158;DHT22;23050;51.776;22.638;2023-06-22T09:15:37;32.90;15.50
37158;DHT22;23050;51.776;22.638;2023-06-22T09:18:02;32.40;18.60
37158;DHT22;23050;51.776;22.638;2023-06-22T09:20:28;31.90;20.30
37158;DHT22;23050;51.776;22.638;2023-06-22T09:22:54;32.50;18.00
37158;DHT22;23050;51.776;22.638;2023-06-22T09:25:19;33.20;15.20
37158;DHT22;23050;51.776;22.638;2023-06-22T09:27:46;33.80;9.70
37158;DHT22;23050;51.776;22.638;2023-06-22T09:30:11;34.30;9.00
37158;DHT22;23050;51.776;22.638;2023-06-22T09:32:38;34.30;7.10
37158;DHT22;23050;51.776;22.638;2023-06-22T09:35:05;33.80;7.10
37158;DHT22;23050;51.776;22.638;2023-06-22T09:37:31;33.10;12.10
37158;DHT22;23050;51.776;22.638;2023-06-22T09:39:56;33.80;10.10
37158;DHT22;23050;51.776;22.638;2023-06-22T09:42:22;34.50;5.80
37158;DHT22;23050;51.776;22.638;2023-06-22T09:44:47;34.10;6.40
37158;DHT22;23050;51.776;22.638;2023-06-22T09:47:13;33.10;10.80
37158;DHT22;23050;51.776;22.638;2023-06-22T09:49:38;33.10;11.20
37158;DHT22;23050;51.776;22.638;2023-06-22T09:52:04;33.50;9.80
37158;DHT22;23050;51.776;22.638;2023-06-22T09:54:30;33.10;8.20
37158;DHT22;23050;51.776;22.638;2023-06-22T09:56:55;33.10;9.50
37158;DHT22;23050;51.776;22.638;2023-06-22T09:59:21;33.10;8.60
37158;DHT22;23050;51.776;22.638;2023-06-22T10:01:46;33.70;8.60
37158;DHT22;23050;51.776;22.638;2023-06-22T10:04:12;33.20;8.10
37158;DHT22;23050;51.776;22.638;2023-06-22T10:06:37;33.00;8.30
37158;DHT22;23050;51.776;22.638;2023-06-22T10:09:06;32.50;10.50
37158;DHT22;23050;51.776;22.638;2023-06-22T10:11:33;31.80;13.50
37158;DHT22;23050;51.776;22.638;2023-06-22T10:14:00;31.30;16.00
37158;DHT22;23050;51.776;22.638;2023-06-22T10:16:30;30.90;18.80
37158;DHT22;23050;51.776;22.638;2023-06-22T10:18:55;31.40;18.70
37158;DHT22;23050;51.776;22.638;2023-06-22T10:21:21;31.70;16.00
37158;DHT22;23050;51.776;22.638;2023-06-22T10:23:46;32.30;14.60
37158;DHT22;23050;51.776;22.638;2023-06-22T10:26:12;32.30;10.60
37158;DHT22;23050;51.776;22.638;2023-06-22T10:28:37;31.90;12.90
37158;DHT22;23050;51.776;22.638;2023-06-22T10:31:03;31.90;13.60
37158;DHT22;23050;51.776;22.638;2023-06-22T10:33:28;32.10;11.10
37158;DHT22;23050;51.776;22.638;2023-06-22T10:35:54;32.60;8.70
37158;DHT22;23050;51.776;22.638;2023-06-22T10:38:19;33.40;4.00
37158;DHT22;23050;51.776;22.638;2023-06-22T10:40:45;33.30;1.40
37158;DHT22;23050;51.776;22.638;2023-06-22T10:43:10;32.90;3.10
37158;DHT22;23050;51.776;22.638;2023-06-22T10:45:36;32.80;5.70
37158;DHT22;23050;51.776;22.638;2023-06-22T10:48:01;33.30;3.90
37158;DHT22;23050;51.776;22.638;2023-06-22T10:50:27;33.60;1.00
37158;DHT22;23050;51.776;22.638;2023-06-22T10:52:53;33.40;1.00
37158;DHT22;23050;51.776;22.638;2023-06-22T10:55:20;33.30;1.00
37158;DHT22;23050;51.776;22.638;2023-06-22T10:57:46;33.50;1.00
37158;DHT22;23050;51.776;22.638;2023-06-22T11:00:12;33.40;1.00
37158;DHT22;23050;51.776;22.638;2023-06-22T11:02:38;33.50;1.00
37158;DHT22;23050;51.776;22.638;2023-06-22T11:05:04;32.30;1.00
37158;DHT22;23050;51.776;22.638;2023-06-22T11:07:29;32.30;3.00
37158;DHT22;23050;51.776;22.638;2023-06-22T11:09:55;32.70;2.00
37158;DHT22;23050;51.776;22.638;2023-06-22T11:12:21;32.60;2.00
37158;DHT22;23050;51.776;22.638;2023-06-22T11:14:46;32.80;1.60
37158;DHT22;23050;51.776;22.638;2023-06-22T11:17:12;32.70;1.00
37158;DHT22;23050;51.776;22.638;2023-06-22T11:19:37;32.00;1.60
37158;DHT22;23050;51.776;22.638;2023-06-22T11:22:03;31.70;2.70
37158;DHT22;23050;51.776;22.638;2023-06-22T11:24:28;31.90;3.50
37158;DHT22;23050;51.776;22.638;2023-06-22T11:26:54;32.60;1.00
37158;DHT22;23050;51.776;22.638;2023-06-22T11:29:19;33.00;1.00
37158;DHT22;23050;51.776;22.638;2023-06-22T11:31:45;32.30;1.00
37158;DHT22;23050;51.776;22.638;2023-06-22T11:34:10;31.80;4.20
37158;DHT22;23050;51.776;22.638;2023-06-22T11:36:36;31.50;4.90
37158;DHT22;23050;51.776;22.638;2023-06-22T11:39:01;31.90;1.40
37158;DHT22;23050;51.776;22.638;2023-06-22T11:41:27;32.30;1.00
37158;DHT22;23050;51.776;22.638;2023-06-22T11:43:53;31.90;1.00
37158;DHT22;23050;51.776;22.638;2023-06-22T11:46:18;31.90;1.00
37158;DHT22;23050;51.776;22.638;2023-06-22T11:48:44;32.10;1.00
37158;DHT22;23050;51.776;22.638;2023-06-22T11:51:09;31.40;1.00
37158;DHT22;23050;51.776;22.638;2023-06-22T11:53:35;31.30;1.00
37158;DHT22;23050;51.776;22.638;2023-06-22T11:56:00;31.80;1.00
37158;DHT22;23050;51.776;22.638;2023-06-22T11:58:26;32.40;1.00
37158;DHT22;23050;51.776;22.638;2023-06-22T12:00:51;32.50;1.00
37158;DHT22;23050;51.776;22.638;2023-06-22T12:03:17;32.50;1.00
37158;DHT22;23050;51.776;22.638;2023-06-22T12:05:43;32.60;1.00
37158;DHT22;23050;51.776;22.638;2023-06-22T12:08:08;32.60;1.00
37158;DHT22;23050;51.776;22.638;2023-06-22T12:10:34;32.60;1.00
37158;DHT22;23050;51.776;22.638;2023-06-22T12:12:59;32.70;1.00
37158;DHT22;23050;51.776;22.638;2023-06-22T12:15:26;32.60;1.00
37158;DHT22;23050;51.776;22.638;2023-06-22T12:17:52;32.30;1.00
37158;DHT22;23050;51.776;22.638;2023-06-22T12:20:19;32.10;1.00
37158;DHT22;23050;51.776;22.638;2023-06-22T12:22:44;32.10;1.00
37158;DHT22;23050;51.776;22.638;2023-06-22T12:25:10;32.30;1.00
37158;DHT22;23050;51.776;22.638;2023-06-22T12:27:35;32.40;1.00
37158;DHT22;23050;51.776;22.638;2023-06-22T12:30:02;32.90;1.00
37158;DHT22;23050;51.776;22.638;2023-06-22T12:32:27;33.00;1.00
37158;DHT22;23050;51.776;22.638;2023-06-22T12:34:53;33.30;1.00
37158;DHT22;23050;51.776;22.638;2023-06-22T12:37:19;33.00;1.00
37158;DHT22;23050;51.776;22.638;2023-06-22T12:39:44;32.90;1.00
37158;DHT22;23050;51.776;22.638;2023-06-22T12:42:10;32.50;1.00
37158;DHT22;23050;51.776;22.638;2023-06-22T12:44:39;32.40;1.00
37158;DHT22;23050;51.776;22.638;2023-06-22T12:47:05;32.80;1.00
37158;DHT22;23050;51.776;22.638;2023-06-22T12:49:31;33.10;1.00
37158;DHT22;23050;51.776;22.638;2023-06-22T12:51:57;33.30;1.00
37158;DHT22;23050;51.776;22.638;2023-06-22T12:54:23;33.00;1.00
37158;DHT22;23050;51.776;22.638;2023-06-22T12:56:50;33.50;1.00
37158;DHT22;23050;51.776;22.638;2023-06-22T12:59:15;33.90;1.00
37158;DHT22;23050;51.776;22.638;2023-06-22T13:01:42;34.30;1.00
37158;DHT22;23050;51.776;22.638;2023-06-22T13:04:09;34.70;1.00
37158;DHT22;23050;51.776;22.638;2023-06-22T13:06:36;34.90;1.00
37158;DHT22;23050;51.776;22.638;2023-06-22T13:09:02;34.40;1.00
37158;DHT22;23050;51.776;22.638;2023-06-22T13:11:29;34.70;1.00
37158;DHT22;23050;51.776;22.638;2023-06-22T13:13:54;34.90;1.00
37158;DHT22;23050;51.776;22.638;2023-06-22T13:16:20;35.10;1.00
37158;DHT22;23050;51.776;22.638;2023-06-22T13:18:45;34.50;1.00
37158;DHT22;23050;51.776;22.638;2023-06-22T13:21:10;34.50;1.00
37158;DHT22;23050;51.776;22.638;2023-06-22T13:23:36;33.60;1.00
37158;DHT22;23050;51.776;22.638;2023-06-22T13:26:01;33.50;1.00
37158;DHT22;23050;51.776;22.638;2023-06-22T13:28:28;33.80;1.00
37158;DHT22;23050;51.776;22.638;2023-06-22T13:30:55;34.30;1.00
37158;DHT22;23050;51.776;22.638;2023-06-22T13:33:21;34.20;1.00
37158;DHT22;23050;51.776;22.638;2023-06-22T13:35:48;34.50;1.00
37158;DHT22;23050;51.776;22.638;2023-06-22T13:38:13;34.50;1.00
37158;DHT22;23050;51.776;22.638;2023-06-22T13:40:39;34.50;1.00
37158;DHT22;23050;51.776;22.638;2023-06-22T13:43:04;34.50;1.00
37158;DHT22;23050;51.776;22.638;2023-06-22T13:45:30;34.40;1.00
37158;DHT22;23050;51.776;22.638;2023-06-22T13:47:56;34.50;1.00
37158;DHT22;23050;51.776;22.638;2023-06-22T13:50:21;33.70;1.00
37158;DHT22;23050;51.776;22.638;2023-06-22T13:52:47;33.30;1.00
37158;DHT22;23050;51.776;22.638;2023-06-22T13:55:12;33.30;1.00
37158;DHT22;23050;51.776;22.638;2023-06-22T13:57:39;33.70;1.00
37158;DHT22;23050;51.776;22.638;2023-06-22T14:00:05;33.70;1.00
37158;DHT22;23050;51.776;22.638;2023-06-22T14:02:31;33.60;1.00
37158;DHT22;23050;51.776;22.638;2023-06-22T14:04:56;33.90;1.00
37158;DHT22;23050;51.776;22.638;2023-06-22T14:07:22;33.90;1.00
37158;DHT22;23050;51.776;22.638;2023-06-22T14:09:49;34.00;1.00
37158;DHT22;23050;51.776;22.638;2023-06-22T14:12:15;33.60;1.00
37158;DHT22;23050;51.776;22.638;2023-06-22T14:14:41;33.80;1.00
37158;DHT22;23050;51.776;22.638;2023-06-22T14:17:06;34.00;1.00
37158;DHT22;23050;51.776;22.638;2023-06-22T14:19:32;33.80;1.00
37158;DHT22;23050;51.776;22.638;2023-06-22T14:21:57;34.10;1.00
37158;DHT22;23050;51.776;22.638;2023-06-22T14:24:23;34.20;1.00
37158;DHT22;23050;51.776;22.638;2023-06-22T14:26:49;33.80;1.00
37158;DHT22;23050;51.776;22.638;2023-06-22T14:29:14;33.40;1.00
37158;DHT22;23050;51.776;22.638;2023-06-22T14:31:40;32.90;1.00
37158;DHT22;23050;51.776;22.638;2023-06-22T14:34:05;32.50;1.00
37158;DHT22;23050;51.776;22.638;2023-06-22T14:36:31;32.60;1.00
37158;DHT22;23050;51.776;22.638;2023-06-22T14:38:57;32.80;1.00
37158;DHT22;23050;51.776;22.638;2023-06-22T14:41:22;33.20;1.00
37158;DHT22;23050;51.776;22.638;2023-06-22T14:43:48;33.60;1.00
37158;DHT22;23050;51.776;22.638;2023-06-22T14:46:15;34.10;1.00
37158;DHT22;23050;51.776;22.638;2023-06-22T14:48:41;34.50;1.00
37158;DHT22;23050;51.776;22.638;2023-06-22T14:51:07;34.60;1.00
37158;DHT22;23050;51.776;22.638;2023-06-22T14:53:32;34.80;1.00
37158;DHT22;23050;51.776;22.638;2023-06-22T14:55:58;34.10;1.00
37158;DHT22;23050;51.776;22.638;2023-06-22T14:58:26;33.60;1.00
37158;DHT22;23050;51.776;22.638;2023-06-22T15:00:52;33.80;1.00
37158;DHT22;23050;51.776;22.638;2023-06-22T15:03:17;34.10;1.00
37158;DHT22;23050;51.776;22.638;2023-06-22T15:05:47;34.30;1.00
37158;DHT22;23050;51.776;22.638;2023-06-22T15:08:12;34.50;1.00
37158;DHT22;23050;51.776;22.638;2023-06-22T15:10:38;34.60;1.00
37158;DHT22;23050;51.776;22.638;2023-06-22T15:13:03;34.30;1.00
37158;DHT22;23050;51.776;22.638;2023-06-22T15:15:29;34.00;1.00
37158;DHT22;23050;51.776;22.638;2023-06-22T15:17:54;34.00;1.00
37158;DHT22;23050;51.776;22.638;2023-06-22T15:20:20;34.10;1.00